Time;durP1;ratioP1;P1;durP2;ratioP2;P2;SDS_P1;SDS_P2;PMS_P1;PMS_P2;Temp;Humidity;BMP_temperature;BMP_pressure;BME280_temperature;BME280_humidity;BME280_pressure;Samples;Min_cycle;Max_cycle;Signal;HPM_P1;HPM_P2
2021/11/25 00:00:32;;;;;;;37.57;17.30;;;1.20;99.90;;;;;;5005664;28;20934;-59
2021/11/25 00:02:58;;;;;;;33.43;16.37;;;1.20;99.90;;;;;;5010597;28;20430;-59
2021/11/25 00:05:25;;;;;;;34.63;18.20;;;1.30;99.90;;;;;;5000603;28;20438;-60
2021/11/25 00:07:50;;;;;;;34.60;17.20;;;1.30;99.90;;;;;;5000507;28;20483;-58
2021/11/25 00:10:16;;;;;;;30.53;16.70;;;1.30;99.90;;;;;;5003662;28;21011;-61
2021/11/25 00:12:42;;;;;;;33.70;17.50;;;1.20;99.90;;;;;;5000055;28;20220;-59
2021/11/25 00:15:10;;;;;;;32.73;16.90;;;1.20;99.90;;;;;;5001444;28;20229;-59
2021/11/25 00:17:37;;;;;;;32.93;15.93;;;1.20;99.90;;;;;;5004194;28;20436;-59
2021/11/25 00:20:05;;;;;;;38.40;16.53;;;1.20;99.90;;;;;;5004884;28;20840;-58
2021/11/25 00:22:31;;;;;;;35.70;17.47;;;1.20;99.90;;;;;;5019971;28;20985;-60
2021/11/25 00:24:56;;;;;;;38.30;18.40;;;1.20;99.90;;;;;;5002810;28;20445;-59
2021/11/25 00:27:23;;;;;;;39.30;18.23;;;1.20;99.90;;;;;;5016755;28;20195;-61
2021/11/25 00:29:48;;;;;;;39.67;18.00;;;1.20;99.90;;;;;;5019660;28;20231;-57
2021/11/25 00:32:14;;;;;;;36.93;17.67;;;1.20;99.90;;;;;;5021965;28;20419;-60
2021/11/25 00:34:40;;;;;;;43.93;18.97;;;1.20;99.90;;;;;;5010230;28;20595;-60
2021/11/25 00:37:06;;;;;;;42.10;18.50;;;1.10;99.90;;;;;;5005876;28;20249;-58
2021/11/25 00:39:32;;;;;;;37.43;18.27;;;1.10;99.90;;;;;;5005362;28;20461;-57
2021/11/25 00:41:57;;;;;;;38.60;18.33;;;1.10;99.90;;;;;;5004554;28;20201;-58
2021/11/25 00:44:23;;;;;;;41.80;19.60;;;1.10;99.90;;;;;;5004392;28;20193;-58
2021/11/25 00:46:48;;;;;;;38.17;18.83;;;1.10;99.90;;;;;;5029991;28;20208;-63
2021/11/25 00:49:14;;;;;;;38.40;18.37;;;1.10;99.90;;;;;;5029470;28;20214;-59
2021/11/25 00:51:40;;;;;;;41.40;19.33;;;1.20;99.90;;;;;;5029471;28;20194;-61
2021/11/25 00:54:05;;;;;;;37.70;18.43;;;1.20;99.90;;;;;;5022464;28;20199;-58
2021/11/25 00:56:31;;;;;;;36.13;17.87;;;1.20;99.90;;;;;;5015139;28;20188;-56
2021/11/25 00:58:57;;;;;;;38.50;18.63;;;1.20;99.90;;;;;;5006332;28;20640;-57
2021/11/25 01:01:22;;;;;;;37.40;18.37;;;1.20;99.90;;;;;;5004458;28;20190;-58
2021/11/25 01:03:48;;;;;;;39.90;19.07;;;1.20;99.90;;;;;;5005905;28;20195;-59
2021/11/25 01:06:14;;;;;;;41.40;19.57;;;1.20;99.90;;;;;;5003663;28;20257;-58
2021/11/25 01:08:40;;;;;;;38.17;19.00;;;1.20;99.90;;;;;;5003299;28;20206;-57
2021/11/25 01:11:06;;;;;;;39.23;18.63;;;1.20;99.90;;;;;;5003070;28;20520;-58
2021/11/25 01:13:32;;;;;;;41.73;18.97;;;1.30;99.90;;;;;;5003838;28;20557;-58
2021/11/25 01:15:58;;;;;;;38.20;19.50;;;1.30;99.90;;;;;;5002882;28;20425;-59
2021/11/25 01:18:25;;;;;;;35.50;17.57;;;1.30;99.90;;;;;;5007711;28;20531;-58
2021/11/25 01:20:52;;;;;;;43.37;18.67;;;1.20;99.90;;;;;;5009298;28;20546;-58
2021/11/25 01:23:24;;;;;;;43.37;19.40;;;1.20;99.90;;;;;;5011754;28;20894;-57
2021/11/25 01:25:52;;;;;;;38.80;19.13;;;1.20;99.90;;;;;;5006506;28;20445;-59
2021/11/25 01:28:19;;;;;;;45.33;20.30;;;1.20;99.90;;;;;;5003171;28;20639;-57
2021/11/25 01:30:48;;;;;;;43.23;19.40;;;1.10;99.90;;;;;;5002810;28;20973;-58
2021/11/25 01:33:14;;;;;;;45.77;19.40;;;1.10;99.90;;;;;;5005443;28;20518;-58
2021/11/25 01:35:40;;;;;;;41.13;19.53;;;1.20;99.90;;;;;;5003094;28;20505;-57
2021/11/25 01:38:07;;;;;;;40.40;19.13;;;1.10;99.90;;;;;;5005085;28;20473;-58
2021/11/25 01:40:34;;;;;;;38.33;18.10;;;1.10;99.90;;;;;;5000250;28;21062;-59
2021/11/25 01:42:59;;;;;;;44.07;17.80;;;1.10;99.90;;;;;;5006252;28;20449;-56
2021/11/25 01:45:27;;;;;;;37.17;16.80;;;1.10;99.90;;;;;;5003876;28;20434;-58
2021/11/25 01:47:54;;;;;;;35.40;17.87;;;1.10;99.90;;;;;;5007761;28;20202;-59
2021/11/25 01:50:21;;;;;;;41.73;19.13;;;1.10;99.90;;;;;;4999977;28;20899;-58
2021/11/25 01:52:47;;;;;;;31.83;16.13;;;1.10;99.90;;;;;;5002318;28;20993;-57
2021/11/25 01:55:15;;;;;;;40.47;17.70;;;1.10;99.90;;;;;;5013575;28;20453;-58
2021/11/25 01:57:41;;;;;;;41.30;17.13;;;1.10;99.90;;;;;;5026827;28;20418;-59
2021/11/25 02:00:18;;;;;;;33.57;16.50;;;1.10;99.90;;;;;;5027763;28;20508;-58
2021/11/25 02:02:44;;;;;;;33.53;16.43;;;1.10;99.90;;;;;;5027214;28;20422;-59
2021/11/25 02:05:11;;;;;;;34.07;15.93;;;1.10;99.90;;;;;;5034427;28;20427;-59
2021/11/25 02:07:37;;;;;;;33.07;15.70;;;1.20;99.90;;;;;;5048917;28;20441;-57
2021/11/25 02:10:05;;;;;;;38.43;15.37;;;1.20;99.90;;;;;;5024430;28;20458;-59
2021/11/25 02:12:31;;;;;;;35.80;16.63;;;1.10;99.90;;;;;;5022140;28;20438;-58
2021/11/25 02:14:57;;;;;;;28.80;14.60;;;1.10;99.90;;;;;;5015115;28;20441;-57
2021/11/25 02:17:23;;;;;;;33.57;15.30;;;1.20;99.90;;;;;;5000762;28;20210;-60
2021/11/25 02:19:49;;;;;;;34.67;15.60;;;1.20;99.90;;;;;;5018815;23;20499;-57
2021/11/25 02:22:16;;;;;;;34.20;16.40;;;1.20;99.90;;;;;;5027371;28;20273;-60
2021/11/25 02:24:42;;;;;;;31.20;16.00;;;1.20;99.90;;;;;;5011378;28;20939;-60
2021/11/25 02:27:08;;;;;;;32.57;15.27;;;1.10;99.90;;;;;;5021059;28;20412;-60
2021/11/25 02:29:34;;;;;;;27.83;13.10;;;1.10;99.90;;;;;;5020123;28;20229;-60
2021/11/25 02:31:59;;;;;;;31.70;15.77;;;1.10;99.90;;;;;;5012289;28;20557;-59
2021/11/25 02:34:25;;;;;;;30.70;15.03;;;1.10;99.90;;;;;;5012607;28;20670;-59
2021/11/25 02:36:54;;;;;;;32.47;15.10;;;1.10;99.90;;;;;;5012285;28;20266;-61
2021/11/25 02:39:20;;;;;;;32.90;16.10;;;1.10;99.90;;;;;;5012572;28;20767;-60
2021/11/25 02:41:46;;;;;;;28.60;15.17;;;1.10;99.90;;;;;;5014263;28;20972;-60
2021/11/25 02:44:12;;;;;;;29.00;15.50;;;1.10;99.90;;;;;;5012661;28;20460;-60
2021/11/25 02:46:38;;;;;;;31.37;14.73;;;1.10;99.90;;;;;;5017848;28;20584;-60
2021/11/25 02:49:04;;;;;;;30.13;14.83;;;1.10;99.90;;;;;;5013282;28;20204;-60
2021/11/25 02:51:35;;;;;;;33.27;16.27;;;1.00;99.90;;;;;;5010017;28;20984;-59
2021/11/25 02:54:02;;;;;;;33.67;14.93;;;1.00;99.90;;;;;;5009742;28;20177;-59
2021/11/25 02:56:31;;;;;;;29.77;14.13;;;1.10;99.90;;;;;;5014216;28;20415;-61
2021/11/25 02:58:58;;;;;;;30.90;16.60;;;1.10;99.90;;;;;;5011617;28;20431;-60
2021/11/25 03:01:28;;;;;;;33.20;15.70;;;1.10;99.90;;;;;;5014422;28;21297;-59
2021/11/25 03:03:54;;;;;;;30.87;15.20;;;1.10;99.90;;;;;;5007640;28;20443;-59
2021/11/25 03:06:20;;;;;;;35.07;16.03;;;1.10;99.90;;;;;;5010533;28;20432;-61
2021/11/25 03:08:46;;;;;;;36.23;16.83;;;1.10;99.90;;;;;;5013548;28;20456;-61
2021/11/25 03:11:15;;;;;;;36.33;17.00;;;1.10;99.90;;;;;;5012989;28;20194;-59
2021/11/25 03:13:44;;;;;;;33.73;15.67;;;1.10;99.90;;;;;;5014860;28;20809;-60
2021/11/25 03:16:11;;;;;;;35.43;16.50;;;1.10;99.90;;;;;;5010162;28;20436;-60
2021/11/25 03:18:37;;;;;;;36.53;17.40;;;1.10;99.90;;;;;;5013852;28;20961;-59
2021/11/25 03:21:04;;;;;;;33.23;15.63;;;1.10;99.90;;;;;;5011971;28;20470;-60
2021/11/25 03:23:31;;;;;;;30.60;15.50;;;1.10;99.90;;;;;;5013746;28;20439;-59
2021/11/25 03:25:59;;;;;;;33.20;16.60;;;1.10;99.90;;;;;;5023702;28;20466;-60
2021/11/25 03:28:25;;;;;;;37.13;16.50;;;1.10;99.90;;;;;;5028444;28;20726;-60
2021/11/25 03:30:55;;;;;;;32.50;16.70;;;1.10;99.90;;;;;;5017990;28;20486;-61
2021/11/25 03:33:26;;;;;;;35.90;16.20;;;1.10;99.90;;;;;;5018848;28;20434;-60
2021/11/25 03:35:52;;;;;;;42.30;17.17;;;1.10;99.90;;;;;;5018418;28;20850;-60
2021/11/25 03:38:18;;;;;;;33.67;16.20;;;1.10;99.90;;;;;;5020095;28;20846;-60
2021/11/25 03:40:44;;;;;;;37.23;17.40;;;1.10;99.90;;;;;;5017319;28;20467;-60
2021/11/25 03:43:10;;;;;;;35.73;15.27;;;1.10;99.90;;;;;;5024649;28;20786;-58
2021/11/25 03:45:36;;;;;;;32.93;15.97;;;1.00;99.90;;;;;;5011649;28;20528;-60
2021/11/25 03:48:01;;;;;;;34.80;16.07;;;1.00;99.90;;;;;;5023729;28;20611;-60
2021/11/25 03:50:27;;;;;;;39.70;17.90;;;1.00;99.90;;;;;;5018495;28;20192;-60
2021/11/25 03:52:53;;;;;;;31.60;14.60;;;1.00;99.90;;;;;;5022205;28;20184;-61
2021/11/25 03:55:19;;;;;;;37.17;16.17;;;1.00;99.90;;;;;;5024905;28;20230;-60
2021/11/25 03:57:46;;;;;;;45.17;17.60;;;1.00;99.90;;;;;;5023060;28;20189;-60
2021/11/25 04:00:15;;;;;;;35.27;16.87;;;1.00;99.90;;;;;;5013283;28;20186;-61
2021/11/25 04:02:41;;;;;;;38.23;17.20;;;1.00;99.90;;;;;;5012175;28;20430;-59
2021/11/25 04:05:08;;;;;;;39.20;17.00;;;0.90;99.90;;;;;;5018581;28;20436;-59
2021/11/25 04:07:34;;;;;;;36.07;16.80;;;0.90;99.90;;;;;;5019042;28;20427;-59
2021/11/25 04:10:00;;;;;;;43.07;19.40;;;0.90;99.90;;;;;;5020542;28;20465;-60
2021/11/25 04:12:25;;;;;;;41.63;17.33;;;0.90;99.90;;;;;;5017610;28;20972;-58
2021/11/25 04:14:51;;;;;;;43.43;17.03;;;0.90;99.90;;;;;;5012478;28;20701;-59
2021/11/25 04:17:21;;;;;;;48.20;16.00;;;0.90;99.90;;;;;;5010836;28;20225;-59
2021/11/25 04:19:50;;;;;;;36.30;15.93;;;0.90;99.90;;;;;;5014044;28;20199;-60
2021/11/25 04:22:18;;;;;;;35.07;16.60;;;0.90;99.90;;;;;;5010687;28;20437;-59
2021/11/25 04:24:44;;;;;;;33.60;15.93;;;0.80;99.90;;;;;;5013505;28;21301;-60
2021/11/25 04:27:10;;;;;;;34.03;14.80;;;0.80;99.90;;;;;;5012874;28;20563;-60
2021/11/25 04:29:38;;;;;;;34.70;16.23;;;0.80;99.90;;;;;;5016181;28;20517;-60
2021/11/25 04:37:33;;;;;;;35.50;16.07;;;0.90;99.90;;;;;;5012889;28;20451;-61
2021/11/25 04:39:59;;;;;;;36.00;16.57;;;0.90;99.90;;;;;;5013786;28;20449;-60
2021/11/25 04:42:25;;;;;;;31.23;16.20;;;0.90;99.90;;;;;;5028069;28;20190;-59
2021/11/25 04:44:50;;;;;;;42.63;19.07;;;0.90;99.90;;;;;;5020986;28;20181;-59
2021/11/25 04:47:16;;;;;;;34.43;15.83;;;0.90;99.90;;;;;;5011249;28;20593;-60
2021/11/25 04:49:42;;;;;;;35.43;17.13;;;0.90;99.90;;;;;;5018984;28;20210;-59
2021/11/25 04:52:08;;;;;;;31.70;14.93;;;0.80;99.90;;;;;;5017815;28;20274;-57
2021/11/25 04:54:33;;;;;;;35.20;15.23;;;0.90;99.90;;;;;;5021004;28;20641;-60
2021/11/25 04:56:59;;;;;;;37.83;17.70;;;0.80;99.90;;;;;;5012361;28;20175;-60
2021/11/25 04:59:25;;;;;;;33.83;16.07;;;0.90;99.90;;;;;;5006540;28;20184;-57
2021/11/25 05:01:51;;;;;;;34.33;17.60;;;0.90;99.90;;;;;;5007301;28;20429;-60
2021/11/25 05:04:16;;;;;;;42.90;16.53;;;0.80;99.90;;;;;;5009546;28;20187;-60
2021/11/25 05:06:42;;;;;;;37.90;17.13;;;0.80;99.90;;;;;;5009839;28;20208;-59
2021/11/25 05:09:08;;;;;;;39.23;17.90;;;0.90;99.90;;;;;;5008676;28;20245;-60
2021/11/25 05:11:34;;;;;;;37.23;15.73;;;0.80;99.90;;;;;;5003138;28;20205;-59
2021/11/25 05:14:00;;;;;;;43.67;17.47;;;0.80;99.90;;;;;;5006830;28;20442;-61
2021/11/25 05:16:25;;;;;;;37.50;15.93;;;0.80;99.90;;;;;;5015233;28;20175;-60
2021/11/25 05:18:51;;;;;;;32.97;15.97;;;0.80;99.90;;;;;;5021666;28;20187;-60
2021/11/25 05:21:16;;;;;;;58.23;17.50;;;0.80;99.90;;;;;;5016030;28;20248;-60
2021/11/25 05:23:42;;;;;;;59.50;16.40;;;0.80;99.90;;;;;;5032963;28;20188;-61
2021/11/25 05:26:08;;;;;;;42.20;16.60;;;0.80;99.90;;;;;;5032083;28;20200;-58
2021/11/25 05:28:34;;;;;;;44.63;16.43;;;0.70;99.90;;;;;;5030947;28;20703;-59
2021/11/25 05:30:59;;;;;;;39.93;16.70;;;0.70;99.90;;;;;;5034704;28;20198;-60
2021/11/25 05:33:25;;;;;;;38.70;17.47;;;0.70;99.90;;;;;;5018430;28;20257;-59
2021/11/25 05:35:51;;;;;;;41.87;17.13;;;0.70;99.90;;;;;;5024173;28;20261;-58
2021/11/25 05:38:16;;;;;;;42.90;17.20;;;0.70;99.90;;;;;;5027796;28;20249;-61
2021/11/25 05:40:44;;;;;;;37.57;15.97;;;0.60;99.90;;;;;;5020516;28;20206;-58
2021/11/25 05:43:10;;;;;;;29.40;14.67;;;0.60;99.90;;;;;;5022474;28;20302;-59
2021/11/25 05:45:36;;;;;;;73.33;18.17;;;0.60;99.90;;;;;;5024097;28;20517;-60
2021/11/25 05:48:02;;;;;;;33.50;15.80;;;0.60;99.90;;;;;;5022164;28;20186;-58
2021/11/25 05:50:28;;;;;;;51.03;15.80;;;0.50;99.90;;;;;;5022217;28;20190;-59
2021/11/25 05:52:56;;;;;;;35.33;15.47;;;0.50;99.90;;;;;;5021781;28;20425;-59
2021/11/25 05:55:25;;;;;;;44.97;15.67;;;0.50;99.90;;;;;;5024730;28;20429;-59
2021/11/25 05:57:51;;;;;;;38.07;15.37;;;0.50;99.90;;;;;;5022577;28;21196;-61
2021/11/25 06:00:16;;;;;;;38.03;16.70;;;0.50;99.90;;;;;;5020330;28;20477;-60
2021/11/25 06:02:45;;;;;;;88.37;17.20;;;0.60;99.90;;;;;;5019834;28;21591;-61
2021/11/25 06:05:16;;;;;;;34.40;16.00;;;0.50;99.90;;;;;;5017149;28;20179;-60
2021/11/25 06:07:45;;;;;;;32.13;16.60;;;0.60;99.90;;;;;;5016182;28;20469;-60
2021/11/25 06:10:13;;;;;;;32.50;15.53;;;0.60;99.90;;;;;;5018269;28;20581;-57
2021/11/25 06:12:39;;;;;;;32.53;15.60;;;0.60;99.90;;;;;;5012585;28;20428;-62
2021/11/25 06:15:06;;;;;;;49.43;17.30;;;0.70;99.90;;;;;;5025445;28;20421;-61
2021/11/25 06:17:32;;;;;;;43.47;16.07;;;0.60;99.90;;;;;;5014877;28;20178;-62
2021/11/25 06:19:57;;;;;;;36.50;15.40;;;0.70;99.90;;;;;;5011263;28;20450;-62
2021/11/25 06:22:23;;;;;;;29.90;16.00;;;0.60;99.90;;;;;;5020226;28;20448;-63
2021/11/25 06:24:50;;;;;;;45.67;18.13;;;0.60;99.90;;;;;;5016243;28;20236;-61
2021/11/25 06:27:16;;;;;;;37.37;16.63;;;0.60;99.90;;;;;;5017212;28;20425;-61
2021/11/25 06:29:41;;;;;;;35.80;17.47;;;0.60;99.90;;;;;;5029019;28;20448;-60
2021/11/25 06:32:07;;;;;;;43.77;19.87;;;0.60;99.90;;;;;;5022060;28;20437;-61
2021/11/25 06:34:33;;;;;;;42.30;16.47;;;0.60;99.90;;;;;;5023844;28;20212;-64
2021/11/25 06:36:59;;;;;;;41.80;17.20;;;0.60;99.90;;;;;;5021516;28;20954;-61
2021/11/25 06:39:25;;;;;;;46.07;16.70;;;0.60;99.90;;;;;;5026622;28;20185;-61
2021/11/25 06:41:50;;;;;;;53.37;15.70;;;0.60;99.90;;;;;;5013167;28;20189;-63
2021/11/25 06:44:16;;;;;;;97.80;17.40;;;0.60;99.90;;;;;;5012009;28;20203;-61
2021/11/25 06:46:42;;;;;;;85.40;15.47;;;0.60;99.90;;;;;;5011711;28;20179;-61
2021/11/25 06:49:07;;;;;;;89.83;18.07;;;0.60;99.90;;;;;;5011370;28;20209;-62
2021/11/25 06:51:33;;;;;;;34.80;16.03;;;0.60;99.90;;;;;;5013602;28;20205;-62
2021/11/25 06:53:59;;;;;;;37.33;15.80;;;0.50;99.90;;;;;;5013853;28;20188;-62
2021/11/25 06:56:25;;;;;;;79.10;18.20;;;0.50;99.90;;;;;;5019832;28;21071;-63
2021/11/25 06:58:52;;;;;;;35.83;15.67;;;0.50;99.90;;;;;;5022617;28;20424;-62
2021/11/25 07:01:18;;;;;;;45.00;16.03;;;0.50;99.90;;;;;;5026895;28;20549;-62
2021/11/25 07:03:44;;;;;;;32.10;15.77;;;0.50;99.90;;;;;;5021593;28;20815;-62
2021/11/25 07:06:10;;;;;;;66.50;17.57;;;0.40;99.90;;;;;;5021716;28;20485;-61
2021/11/25 07:08:35;;;;;;;35.77;15.97;;;0.40;99.90;;;;;;5017372;28;20203;-64
2021/11/25 07:11:01;;;;;;;32.53;13.60;;;0.40;99.90;;;;;;5023363;28;20230;-61
2021/11/25 07:13:27;;;;;;;33.57;15.60;;;0.40;99.90;;;;;;5028904;28;20251;-61
2021/11/25 07:15:53;;;;;;;37.70;15.33;;;0.40;99.90;;;;;;5024548;28;20183;-63
2021/11/25 07:18:19;;;;;;;60.10;16.77;;;0.40;99.90;;;;;;5011334;28;21002;-62
2021/11/25 07:20:45;;;;;;;76.20;14.60;;;0.40;99.90;;;;;;5016816;28;20494;-62
2021/11/25 07:23:10;;;;;;;30.03;14.07;;;0.30;99.90;;;;;;5010961;28;20190;-62
2021/11/25 07:25:36;;;;;;;38.13;14.70;;;0.30;99.90;;;;;;5015793;28;20665;-62
2021/11/25 07:28:02;;;;;;;50.97;14.60;;;0.30;99.90;;;;;;5027930;28;20186;-62
2021/11/25 07:30:28;;;;;;;39.93;13.17;;;0.30;99.90;;;;;;5029875;28;20193;-61
2021/11/25 07:32:54;;;;;;;38.87;16.00;;;0.30;99.90;;;;;;5023043;28;20461;-62
2021/11/25 07:35:21;;;;;;;118.30;16.23;;;0.30;99.90;;;;;;5021544;28;20170;-61
2021/11/25 07:37:52;;;;;;;38.93;13.37;;;0.20;99.90;;;;;;5027558;28;20511;-61
2021/11/25 07:40:20;;;;;;;42.40;12.80;;;0.20;99.90;;;;;;5011392;28;20457;-62
2021/11/25 07:42:46;;;;;;;53.27;12.63;;;0.20;99.90;;;;;;5029553;28;20420;-62
2021/11/25 07:45:12;;;;;;;57.03;15.10;;;0.20;99.90;;;;;;5026517;28;20448;-62
2021/11/25 07:47:38;;;;;;;28.20;12.70;;;0.20;99.90;;;;;;5031871;28;20170;-62
2021/11/25 07:50:09;;;;;;;32.10;12.30;;;0.20;99.90;;;;;;5017719;28;20532;-63
2021/11/25 07:52:36;;;;;;;25.97;11.83;;;0.20;99.90;;;;;;5020799;28;20210;-61
2021/11/25 07:55:03;;;;;;;34.13;11.90;;;0.10;99.90;;;;;;5025228;28;20833;-63
2021/11/25 07:57:28;;;;;;;59.77;12.03;;;0.20;99.90;;;;;;5014777;28;20956;-62
2021/11/25 07:59:54;;;;;;;37.97;12.47;;;0.20;99.90;;;;;;5014577;28;20503;-63
2021/11/25 08:02:20;;;;;;;54.17;13.90;;;0.20;99.90;;;;;;5025300;28;20179;-62
2021/11/25 08:04:49;;;;;;;57.03;12.33;;;0.20;99.90;;;;;;5017979;28;20660;-64
2021/11/25 08:07:16;;;;;;;106.50;14.67;;;0.20;99.90;;;;;;5019789;28;20855;-61
2021/11/25 08:09:42;;;;;;;119.33;14.27;;;0.20;99.90;;;;;;5024163;28;21062;-62
2021/11/25 08:12:08;;;;;;;62.20;13.00;;;0.10;99.90;;;;;;5025504;28;20426;-64
2021/11/25 08:14:34;;;;;;;31.27;12.17;;;0.10;99.90;;;;;;5015774;28;21167;-62
2021/11/25 08:17:00;;;;;;;50.50;12.50;;;0.00;99.90;;;;;;5012956;28;20436;-64
2021/11/25 08:19:29;;;;;;;82.43;14.97;;;0.00;99.90;;;;;;5015471;28;20182;-63
2021/11/25 08:21:55;;;;;;;83.07;16.80;;;0.00;99.90;;;;;;5015423;28;20237;-63
2021/11/25 08:24:21;;;;;;;41.00;12.10;;;-0.10;99.90;;;;;;5030278;28;20507;-63
2021/11/25 08:26:47;;;;;;;42.27;14.33;;;0.00;99.90;;;;;;5030000;28;20495;-62
2021/11/25 08:29:13;;;;;;;34.87;13.00;;;0.00;99.90;;;;;;5026758;28;20461;-63
2021/11/25 08:31:38;;;;;;;27.40;13.40;;;0.10;99.90;;;;;;5029703;28;20201;-62
2021/11/25 08:34:05;;;;;;;31.70;14.07;;;0.20;99.90;;;;;;5027469;28;20243;-63
2021/11/25 08:36:30;;;;;;;26.67;12.83;;;0.30;99.90;;;;;;5020648;28;20656;-64
2021/11/25 08:38:56;;;;;;;34.80;13.93;;;0.40;99.90;;;;;;5028822;28;20423;-62
2021/11/25 08:41:22;;;;;;;28.20;12.90;;;0.40;99.90;;;;;;5019370;28;20203;-62
2021/11/25 08:43:48;;;;;;;29.43;13.60;;;0.50;99.90;;;;;;5009469;28;20720;-62
2021/11/25 08:46:15;;;;;;;28.73;13.27;;;0.60;99.90;;;;;;5011374;28;20669;-61
2021/11/25 08:48:42;;;;;;;28.47;13.77;;;0.70;99.90;;;;;;5009687;28;20263;-64
2021/11/25 08:51:08;;;;;;;30.57;13.47;;;0.70;99.90;;;;;;5011415;28;20441;-64
2021/11/25 08:53:34;;;;;;;27.97;13.90;;;0.80;99.90;;;;;;5024604;28;20420;-62
2021/11/25 08:55:59;;;;;;;29.20;13.47;;;0.80;99.90;;;;;;5013559;28;20429;-65
2021/11/25 08:58:25;;;;;;;26.47;13.70;;;0.90;99.90;;;;;;5014563;28;20846;-61
2021/11/25 09:00:51;;;;;;;24.63;12.73;;;0.90;99.90;;;;;;5013435;28;20199;-61
2021/11/25 09:03:17;;;;;;;31.07;15.00;;;1.00;99.90;;;;;;5013226;28;20189;-62
2021/11/25 09:05:42;;;;;;;30.40;14.90;;;1.10;99.90;;;;;;5027665;28;20440;-62
2021/11/25 09:08:08;;;;;;;31.20;14.40;;;1.10;99.90;;;;;;5033478;28;20269;-63
2021/11/25 09:10:35;;;;;;;30.00;14.43;;;1.10;99.90;;;;;;5027082;28;20234;-62
2021/11/25 09:13:02;;;;;;;35.90;15.00;;;1.10;99.90;;;;;;5017969;28;20175;-62
2021/11/25 09:15:28;;;;;;;30.63;15.00;;;1.10;99.90;;;;;;5011979;28;20414;-66
2021/11/25 09:17:55;;;;;;;34.53;16.10;;;1.20;99.90;;;;;;5016519;28;20436;-58
2021/11/25 09:20:20;;;;;;;29.17;14.87;;;1.20;99.90;;;;;;5023406;28;20468;-63
2021/11/25 09:22:47;;;;;;;32.50;15.83;;;1.30;99.90;;;;;;5025601;28;20440;-62
2021/11/25 09:25:12;;;;;;;34.80;15.23;;;1.30;99.90;;;;;;5028965;28;20175;-63
2021/11/25 09:27:38;;;;;;;35.37;15.93;;;1.30;99.90;;;;;;5020104;28;20464;-63
2021/11/25 09:30:05;;;;;;;29.70;14.73;;;1.40;99.90;;;;;;5028061;28;20210;-61
2021/11/25 09:32:31;;;;;;;30.30;14.77;;;1.40;99.90;;;;;;5026126;28;20177;-61
2021/11/25 09:34:57;;;;;;;37.07;15.70;;;1.40;99.90;;;;;;5027726;28;20451;-63
2021/11/25 09:37:22;;;;;;;27.33;14.00;;;1.40;99.90;;;;;;5030861;28;20783;-61
2021/11/25 09:39:48;;;;;;;34.67;15.07;;;1.40;99.90;;;;;;5023814;28;20207;-62
2021/11/25 09:42:15;;;;;;;28.77;14.43;;;1.50;99.90;;;;;;5016892;28;20209;-65
2021/11/25 09:44:40;;;;;;;39.80;16.37;;;1.50;99.90;;;;;;5022142;28;20556;-59
2021/11/25 09:47:06;;;;;;;32.37;14.67;;;1.60;99.90;;;;;;5028064;28;20431;-63
2021/11/25 09:49:32;;;;;;;28.70;14.90;;;1.70;99.90;;;;;;5021245;28;20211;-61
2021/11/25 09:51:59;;;;;;;32.50;14.67;;;1.70;99.90;;;;;;5018601;28;20190;-62
2021/11/25 09:54:25;;;;;;;32.87;14.63;;;1.80;99.90;;;;;;5031944;28;20509;-62
2021/11/25 09:56:52;;;;;;;34.33;14.73;;;1.90;99.90;;;;;;5019914;28;20505;-62
2021/11/25 09:59:18;;;;;;;34.50;14.13;;;1.90;99.90;;;;;;5031907;28;20977;-63
2021/11/25 10:01:43;;;;;;;30.00;15.50;;;2.10;99.90;;;;;;5023652;28;20471;-62
2021/11/25 10:04:10;;;;;;;28.77;14.83;;;2.40;99.90;;;;;;5028690;28;20438;-63
2021/11/25 10:06:51;;;;;;;27.53;14.97;;;2.60;99.90;;;;;;5027137;28;20441;-60
2021/11/25 10:09:16;;;;;;;24.73;12.93;;;2.90;99.90;;;;;;5024514;28;20856;-64
2021/11/25 10:11:42;;;;;;;27.60;12.20;;;3.10;99.90;;;;;;5014569;28;20463;-63
2021/11/25 10:14:12;;;;;;;24.90;13.50;;;3.20;99.90;;;;;;5015996;28;20228;-62
2021/11/25 10:16:45;;;;;;;28.70;14.80;;;3.40;99.90;;;;;;5028038;28;20421;-63
2021/11/25 10:19:23;;;;;;;27.40;13.00;;;3.40;99.90;;;;;;5011939;28;21002;-61
2021/11/25 10:21:56;;;;;;;25.10;12.40;;;3.40;99.90;;;;;;5020029;28;20920;-63
2021/11/25 10:24:43;;;;;;;26.47;14.40;;;3.40;99.90;;;;;;5015099;28;20980;-65
2021/11/25 10:27:19;;;;;;;24.10;12.53;;;3.40;99.90;;;;;;5015560;28;20445;-63
2021/11/25 10:29:47;;;;;;;23.17;12.83;;;3.30;99.90;;;;;;5010742;28;20476;-62
2021/11/25 10:32:21;;;;;;;21.60;11.90;;;3.30;99.90;;;;;;5017160;28;20501;-63
2021/11/25 10:35:07;;;;;;;28.70;11.30;;;3.30;99.90;;;;;;5014132;28;20445;-64
2021/11/25 10:37:38;;;;;;;25.80;11.20;;;3.30;99.90;;;;;;5012854;28;20430;-64
2021/11/25 10:40:26;;;;;;;20.87;11.57;;;3.30;99.90;;;;;;5013387;28;20894;-64
2021/11/25 10:42:52;;;;;;;24.80;12.13;;;3.30;99.90;;;;;;5022413;28;20442;-61
2021/11/25 10:45:19;;;;;;;20.80;11.13;;;3.30;99.90;;;;;;5015050;28;20544;-60
2021/11/25 10:47:55;;;;;;;24.87;13.53;;;3.40;99.90;;;;;;5024959;28;20440;-63
2021/11/25 10:50:21;;;;;;;21.93;12.70;;;3.40;99.90;;;;;;5014780;28;20483;-62
2021/11/25 10:52:48;;;;;;;21.07;12.00;;;3.60;99.90;;;;;;5021320;28;21007;-62
2021/11/25 10:55:14;;;;;;;21.00;12.37;;;3.70;99.90;;;;;;5018594;28;20187;-63
2021/11/25 10:57:43;;;;;;;25.27;13.00;;;3.90;99.90;;;;;;5019013;28;20435;-62
2021/11/25 11:00:23;;;;;;;22.37;13.07;;;4.00;99.90;;;;;;5024387;28;20573;-63
2021/11/25 11:03:03;;;;;;;22.90;12.60;;;4.00;99.90;;;;;;5016731;28;20530;-61
2021/11/25 11:05:30;;;;;;;22.47;12.27;;;3.90;99.90;;;;;;5019942;28;20430;-63
2021/11/25 11:08:06;;;;;;;23.77;12.77;;;3.90;99.90;;;;;;5019859;28;20437;-63
2021/11/25 11:10:33;;;;;;;18.23;10.67;;;3.90;99.90;;;;;;5018641;28;20515;-64
2021/11/25 11:15:34;;;;;;;19.30;11.40;;;3.90;99.90;;;;;;5018155;28;20438;-64
2021/11/25 11:20:30;;;;;;;19.50;10.23;;;4.00;99.90;;;;;;5020990;28;20446;-61
2021/11/25 11:23:00;;;;;;;19.57;10.90;;;4.10;99.90;;;;;;5021657;28;20430;-62
2021/11/25 11:25:27;;;;;;;27.03;12.03;;;4.10;99.90;;;;;;5012684;28;20433;-63
2021/11/25 11:27:56;;;;;;;19.43;11.17;;;4.20;99.90;;;;;;5011490;28;20495;-63
2021/11/25 11:30:23;;;;;;;24.93;12.73;;;4.30;99.90;;;;;;5021286;28;20540;-63
2021/11/25 11:32:49;;;;;;;24.07;12.83;;;4.30;99.90;;;;;;5015296;28;21078;-61
2021/11/25 11:35:19;;;;;;;23.50;11.63;;;4.30;99.90;;;;;;5007816;28;20460;-64
2021/11/25 11:37:45;;;;;;;27.53;12.33;;;4.30;99.90;;;;;;5015190;28;20441;-62
2021/11/25 11:40:12;;;;;;;21.90;11.30;;;4.40;99.90;;;;;;5013934;28;20558;-62
2021/11/25 11:42:38;;;;;;;19.63;11.70;;;4.40;99.90;;;;;;5018309;28;20473;-63
2021/11/25 11:45:05;;;;;;;21.80;12.13;;;4.40;99.90;;;;;;5016563;28;20480;-65
2021/11/25 11:47:32;;;;;;;21.93;12.37;;;4.40;99.90;;;;;;5017262;28;20433;-60
2021/11/25 11:50:09;;;;;;;22.80;13.00;;;4.50;99.90;;;;;;5015288;28;20504;-63
2021/11/25 11:52:53;;;;;;;26.57;13.50;;;4.50;99.90;;;;;;5011324;28;20422;-63
2021/11/25 11:55:34;;;;;;;26.60;13.90;;;4.50;99.90;;;;;;5015617;28;20458;-62
2021/11/25 11:58:01;;;;;;;25.40;14.03;;;4.50;99.90;;;;;;5018139;28;20435;-65
2021/11/25 12:00:27;;;;;;;23.20;12.43;;;4.60;99.90;;;;;;5018059;28;20460;-62
2021/11/25 12:02:55;;;;;;;24.87;12.07;;;4.60;99.90;;;;;;5015767;28;21194;-62
2021/11/25 12:05:38;;;;;;;36.53;16.73;;;4.60;99.90;;;;;;5016053;28;20216;-61
2021/11/25 12:08:19;;;;;;;23.33;12.00;;;4.50;99.90;;;;;;5012406;28;20439;-62
2021/11/25 12:10:57;;;;;;;22.67;12.03;;;4.40;99.90;;;;;;5018612;28;21242;-63
2021/11/25 12:13:29;;;;;;;19.47;11.33;;;4.30;99.90;;;;;;5019214;28;20438;-61
2021/11/25 12:16:16;;;;;;;16.97;10.27;;;4.20;99.90;;;;;;5023620;28;20435;-62
2021/11/25 12:18:42;;;;;;;19.83;12.13;;;4.20;99.90;;;;;;5017646;28;20495;-66
2021/11/25 12:21:08;;;;;;;17.23;10.57;;;4.30;99.90;;;;;;5020446;28;20555;-62
2021/11/25 12:23:36;;;;;;;19.20;10.70;;;4.30;99.90;;;;;;5022827;28;20512;-64
2021/11/25 12:26:03;;;;;;;24.07;12.10;;;4.40;99.90;;;;;;5019242;28;20186;-66
2021/11/25 12:28:31;;;;;;;22.83;10.90;;;4.50;99.90;;;;;;5024603;28;20987;-62
2021/11/25 12:31:21;;;;;;;19.67;11.17;;;4.50;99.90;;;;;;5024855;28;20536;-63
2021/11/25 12:33:49;;;;;;;22.23;11.37;;;4.60;99.90;;;;;;5023515;28;20441;-63
2021/11/25 12:36:49;;;;;;;19.77;11.27;;;4.60;99.90;;;;;;5026335;28;20426;-60
2021/11/25 12:39:35;;;;;;;22.30;12.10;;;4.70;99.90;;;;;;5009437;28;20547;-61
2021/11/25 12:42:01;;;;;;;24.27;10.70;;;4.70;99.90;;;;;;5020707;28;20465;-63
2021/11/25 12:44:27;;;;;;;20.20;10.97;;;4.70;99.90;;;;;;5022343;28;20444;-63
2021/11/25 12:46:52;;;;;;;21.70;12.03;;;4.70;99.90;;;;;;5019954;28;20194;-62